• Join FlightAware (Why Join?)
  • Login
  • US Flag 
12:39AM EDT


 

Airport Tracker/Info


-or-


 

Live Flight TrackerFlight Track Log ✈ GJS3707 ✈ 14-May-2013 ✈ KORD - KBOI

Flight Track Log - Related Links

Times and Time Zones

All times are in EDT time to prevent confusion due to time zone crossing. See the GJS3707 flight status page for this flight to view local times or setup timezone preferences in your user account.

Time Position Orientation Groundspeed Altitude Reporting Facility
EDT Latitude Longitude Course Direction KTS MPH feet Rate Location/Type
11:04AM 42.0000 -88.0000 261° West 185 213 2,900  Level Chicago TRACON
11:05AM 41.9833 -88.0833 255° West 240 276 4,900 1,980 Climbing Chicago TRACON
11:06AM 41.9756 -88.1364 259° West 235 270 6,300 2,400 Climbing Chicago Center
11:07AM 41.9394 -88.2194 240° Southwest 259 298 8,900 2,220 Climbing Chicago Center
11:08AM 41.8800 -88.7795 261° West  Level FlightAware Approximate
11:08AM 41.9153 -88.3106 250° West 268 308 11,000  Level Chicago Center
11:09AM 41.8627 -88.9303 261° West  Level FlightAware Approximate
11:09AM 41.9019 -88.4100 260° West 274 315 13,200  Level Chicago Center
11:10AM 41.8858 -88.5169 259° West 292 336 14,400 1,620 Climbing Chicago Center
11:11AM 41.8658 -88.6622 260° West 327 376 16,600 1,980 Climbing Chicago Center
11:12AM 41.8511 -88.7856 261° West 338 389 18,600 1,740 Climbing Chicago Center
11:13AM 41.8347 -88.9131 260° West 348 400 20,200 1,740 Climbing Chicago Center
11:14AM 41.8181 -89.0428 260° West 356 410 22,200 1,560 Climbing Chicago Center
11:15AM 41.8042 -89.1719 262° West 354 407 23,500 1,020 Climbing Chicago Center
11:16AM 41.7942 -89.3086 264° West 368 423 24,400 1,140 Climbing Chicago Center
11:17AM 41.7764 -89.4800 262° West 386 444 25,900 1,080 Climbing Chicago Center
11:18AM 41.7442 -89.6203 253° West 402 463 26,700 900 Climbing Chicago Center
11:19AM 41.7117 -89.7669 254° West 411 473 27,800 960 Climbing Chicago Center
11:20AM 41.6797 -89.9125 254° West 410 472 28,700 900 Climbing Chicago Center
11:21AM 41.6583 -90.0614 259° West 411 473 29,700 780 Climbing Chicago Center
11:22AM 41.6469 -90.2133 264° West 411 473 30,300 600 Climbing Chicago Center
11:23AM 41.6311 -90.3972 263° West 416 479 31,000 540 Climbing Chicago Center
11:24AM 41.6186 -90.5522 264° West 419 482 31,500 540 Climbing Chicago Center
11:25AM 41.6056 -90.7017 263° West 421 484 32,200 720 Climbing Chicago Center
11:26AM 41.5911 -90.8583 263° West 426 490 33,000 720 Climbing Chicago Center
11:27AM 41.5789 -91.0119 264° West 420 483 33,800 480 Climbing Chicago Center
11:28AM 41.5617 -91.1950 263° West 418 481 34,000 60 Climbing Chicago Center
11:29AM 41.5481 -91.3478 263° West 416 479 34,000  Level Chicago Center
11:30AM 41.5344 -91.4953 263° West 406 467 34,000  Level Chicago Center
11:31AM 41.5208 -91.6458 263° West 410 472 34,000  Level Chicago Center
11:32AM 41.5064 -91.8006 263° West 419 482 34,000  Level Chicago Center
11:33AM 41.4917 -91.9536 263° West 419 482 34,000  Level Chicago Center
11:34AM 41.4736 -92.1367 263° West 417 480 34,000  Level Chicago Center
11:35AM 41.4578 -92.2886 262° West 416 479 34,000  Level Chicago Center
11:36AM 41.4433 -92.4406 263° West 415 478 34,000  Level Chicago Center
11:38AM 41.4272 -92.5908 262° West 414 476 34,000  Level Chicago Center
11:39AM 41.4117 -92.7417 262° West 415 478 34,000  Level Chicago Center
11:39AM 41.4064 -92.7997 263° West 413 475 34,000  Level Minneapolis Center
11:40AM 41.3903 -92.9508 262° West 414 476 34,000  Level Minneapolis Center
11:41AM 41.3744 -93.1000 262° West 413 475 34,000  Level Minneapolis Center
11:42AM 41.3586 -93.2519 262° West 417 480 34,000  Level Minneapolis Center
11:43AM 41.3378 -93.4347 261° West 420 483 34,000  Level Minneapolis Center
11:44AM 41.3222 -93.5858 262° West 418 481 34,000  Level Minneapolis Center
11:45AM 41.3061 -93.7392 262° West 421 484 34,000  Level Minneapolis Center
11:46AM 41.2889 -93.8942 262° West 427 491 34,000  Level Minneapolis Center
11:47AM 41.2703 -94.0506 261° West 431 496 34,000  Level Minneapolis Center
11:48AM 41.2497 -94.2233 261° West 430 495 34,000  Level Minneapolis Center
11:49AM 41.2314 -94.3806 261° West 431 496 34,000  Level Minneapolis Center
11:50AM 41.2125 -94.5394 261° West 434 499 34,000  Level Minneapolis Center
11:51AM 41.1933 -94.6975 261° West 433 498 34,000  Level Minneapolis Center
11:52AM 41.1697 -94.8897 261° West 437 503 34,000  Level Minneapolis Center
11:53AM 41.1489 -95.0489 260° West 437 503 34,000  Level Minneapolis Center
11:54AM 41.1289 -95.2081 261° West 436 502 34,000  Level Minneapolis Center
11:55AM 41.1081 -95.3661 260° West 434 499 34,000  Level Minneapolis Center
11:56AM 41.0875 -95.5250 260° West 434 499 34,000  Level Minneapolis Center
11:57AM 41.0656 -95.6850 260° West 436 502 34,000  Level Minneapolis Center
11:58AM 41.0442 -95.8456 260° West 438 504 34,000  Level Minneapolis Center
11:59AM 41.0233 -96.0069 260° West 439 505 34,000  Level Minneapolis Center
12:00PM 40.9978 -96.1994 260° West 439 505 34,000  Level Minneapolis Center
12:02PM 40.9764 -96.3603 260° West 440 506 34,000  Level Minneapolis Center
12:03PM 40.9550 -96.5197 260° West 440 506 34,000  Level Minneapolis Center
12:04PM 40.9328 -96.6797 260° West 440 506 34,000  Level Minneapolis Center
12:05PM 40.9281 -96.8408 268° West 440 506 34,000  Level Minneapolis Center
12:06PM 40.9361 -97.0044 274° West 443 510 34,000  Level Minneapolis Center
12:07PM 40.9428 -97.1653 273° West 442 509 34,000  Level Minneapolis Center
12:08PM 40.9500 -97.3256 273° West 438 504 34,000  Level Minneapolis Center
12:09PM 40.9583 -97.5150 273° West 434 499 34,000  Level Minneapolis Center
12:10PM 40.9650 -97.6725 273° West 430 495 34,000  Level Minneapolis Center
12:11PM 40.9717 -97.8294 273° West 428 493 34,000  Level Minneapolis Center
12:12PM 40.9769 -97.9853 273° West 425 489 34,000  Level Minneapolis Center
12:13PM 40.9831 -98.1417 273° West 424 488 34,000  Level Minneapolis Center
12:14PM 40.9889 -98.3017 273° West 429 494 34,000  Level Minneapolis Center
12:15PM 40.9947 -98.4628 273° West 433 498 34,000  Level Minneapolis Center
12:16PM 41.0008 -98.6586 272° West 439 505 34,000  Level Minneapolis Center
12:17PM 41.0022 -98.8197 271° West 442 509 34,000  Level Minneapolis Center
12:18PM 41.0103 -98.9861 274° West 450 518 34,000  Level Minneapolis Center
12:19PM 41.0161 -99.1622 273° West 448 516 34,000  Level Minneapolis Center
12:20PM 41.0186 -99.2603 272° West 447 514 34,000  Level Denver Center
12:21PM 41.0242 -99.4256 273° West 449 517 34,000  Level Denver Center
12:22PM 41.0281 -99.5883 272° West 444 511 34,000  Level Denver Center
12:23PM 41.0319 -99.7481 272° West 437 503 34,000  Level Denver Center
12:24PM 41.0358 -99.9286 272° West 434 499 34,000  Level Denver Center
12:25PM 41.0386 -100.0797 271° West 431 496 34,000  Level Denver Center
12:26PM 41.0425 -100.2556 272° West 431 496 34,000  Level Denver Center
12:27PM 41.0453 -100.4064 271° West 430 495 34,000  Level Denver Center
12:28PM 41.0483 -100.5842 271° West 434 499 34,000  Level Denver Center
12:29PM 41.0503 -100.7364 271° West 437 503 34,000  Level Denver Center
12:30PM 41.0628 -100.9119 275° West 435 501 34,000  Level Denver Center
12:31PM 41.0742 -101.0622 276° West 433 498 34,000  Level Denver Center
12:32PM 41.0881 -101.2400 276° West 435 501 34,000  Level Denver Center
12:33PM 41.0992 -101.3931 276° West 438 504 34,000  Level Denver Center
12:34PM 41.1119 -101.5706 276° West 435 501 34,000  Level Denver Center
12:35PM 41.1236 -101.7236 276° West 437 503 34,000  Level Denver Center
12:36PM 41.1353 -101.9033 275° West 439 505 34,000  Level Denver Center
12:37PM 41.1472 -102.0561 276° West 436 502 34,000  Level Denver Center
12:38PM 41.1578 -102.2361 275° West 439 505 34,000  Level Denver Center
12:39PM 41.1683 -102.3906 275° West 440 506 34,000  Level Denver Center
12:40PM 41.1789 -102.5703 275° West 438 504 34,000  Level Denver Center
12:41PM 41.1889 -102.7250 275° West 441 507 34,000  Level Denver Center
12:42PM 41.2000 -102.9047 275° West 439 505 34,000  Level Denver Center
12:43PM 41.2103 -103.0722 275° West 437 503 34,000  Level Denver Center
12:44PM 41.2206 -103.2267 275° West 438 504 34,000  Level Denver Center
12:46PM 41.2278 -103.3819 274° West 438 504 34,000  Level Denver Center
12:47PM 41.2383 -103.5608 275° West 436 502 34,000  Level Denver Center
12:48PM 41.2467 -103.7147 274° West 435 501 34,000  Level Denver Center
12:49PM 41.2569 -103.8936 274° West 435 501 34,000  Level Denver Center
12:50PM 41.2639 -104.0472 273° West 434 499 34,000  Level Denver Center
12:51PM 41.2733 -104.2256 274° West 434 499 34,000  Level Denver Center
12:52PM 41.2819 -104.4031 274° West 431 496 34,000  Level Denver Center
12:53PM 41.2911 -104.5828 274° West 434 499 34,000  Level Denver Center
12:54PM 41.2978 -104.7358 273° West 434 499 34,000  Level Denver Center
12:55PM 41.3058 -104.9131 274° West 431 496 34,000  Level Denver Center
12:56PM 41.3108 -105.0661 273° West 432 497 34,000  Level Denver Center
12:57PM 41.3194 -105.2450 274° West 433 498 34,000  Level Denver Center
12:58PM 41.3258 -105.3975 273° West 432 497 34,000  Level Denver Center
12:59PM 41.3325 -105.5764 273° West 433 498 34,000  Level Denver Center
01:00PM 41.3406 -105.7547 274° West 432 497 34,000  Level Denver Center
01:01PM 41.3564 -105.9342 277° West 436 502 34,000  Level Denver Center
01:02PM 41.3711 -106.0875 277° West 438 504 34,000  Level Denver Center
01:04PM 41.3861 -106.2661 276° West 435 501 34,000  Level Denver Center
01:05PM 41.4006 -106.4194 277° West 435 501 34,000  Level Denver Center
01:06PM 41.4139 -106.6025 276° West 433 498 34,000  Level Denver Center
01:07PM 41.4283 -106.7569 277° West 437 503 34,000  Level Denver Center
01:08PM 41.4408 -106.9097 276° West 436 502 34,000  Level Denver Center
01:09PM 41.4553 -107.0892 276° West 438 504 34,000  Level Denver Center
01:10PM 41.4661 -107.2431 275° West 435 501 34,000  Level Denver Center
01:11PM 41.4817 -107.4222 277° West 436 502 34,000  Level Denver Center
01:12PM 41.4931 -107.5736 276° West 431 496 34,000  Level Denver Center
01:13PM 41.5053 -107.7478 275° West 423 487 34,000  Level Denver Center
01:14PM 41.5164 -107.8994 276° West 427 491 34,000  Level Denver Center
01:15PM 41.5283 -108.0714 275° West 420 483 34,000  Level Denver Center
01:16PM 41.5356 -108.1711 276° West 420 483 34,000  Level Salt Lake Center
01:17PM 41.5456 -108.3206 275° West 424 488 34,000  Level Salt Lake Center
01:18PM 41.5572 -108.4922 275° West 419 482 34,000  Level Salt Lake Center
01:19PM 41.5678 -108.6411 275° West 420 483 34,000  Level Salt Lake Center
01:20PM 41.5786 -108.8153 275° West 423 487 34,000  Level Salt Lake Center
01:21PM 41.5889 -108.9617 275° West 421 484 34,000  Level Salt Lake Center
01:22PM 41.6331 -109.1256 290° West 430 495 34,000  Level Salt Lake Center
01:23PM 41.6842 -109.2619 297° West 433 498 34,000  Level Salt Lake Center
01:24PM 41.7339 -109.3986 296° West 431 496 34,000  Level Salt Lake Center
01:25PM 41.7919 -109.5586 296° West 430 495 34,000  Level Salt Lake Center
01:26PM 41.8428 -109.6967 296° West 432 497 34,000  Level Salt Lake Center
01:27PM 41.9017 -109.8581 296° West 431 496 34,000  Level Salt Lake Center
01:28PM 41.9522 -109.9972 296° West 434 499 34,000  Level Salt Lake Center
01:29PM 42.0106 -110.1597 296° West 433 498 34,000  Level Salt Lake Center
01:30PM 42.0606 -110.2972 296° West 429 494 34,000  Level Salt Lake Center
01:31PM 42.1106 -110.4350 296° West 428 493 34,000  Level Salt Lake Center
01:32PM 42.1672 -110.5967 295° West 428 493 34,000  Level Salt Lake Center
01:33PM 42.2175 -110.7364 296° West 433 498 34,000  Level Salt Lake Center
01:34PM 42.2742 -110.8972 296° West 427 491 34,000  Level Salt Lake Center
01:35PM 42.3250 -111.0447 295° West 429 494 34,000  Level Salt Lake Center
01:36PM 42.3756 -111.1914 295° West 432 497 34,000  Level Salt Lake Center
01:37PM 42.4253 -111.3350 295° West 426 490 34,000  Level Salt Lake Center
01:38PM 42.4761 -111.4817 295° West 430 495 34,000  Level Salt Lake Center
01:39PM 42.5256 -111.6267 295° West 427 491 34,000  Level Salt Lake Center
01:40PM 42.5853 -111.8006 295° West 426 490 34,000  Level Salt Lake Center
01:41PM 42.6342 -111.9439 295° West 422 486 34,000  Level Salt Lake Center
01:42PM 42.6831 -112.0892 295° West 423 487 34,000  Level Salt Lake Center
01:43PM 42.7350 -112.2411 295° West 422 486 34,000  Level Salt Lake Center
01:44PM 42.7819 -112.3839 294° West 428 493 34,000  Level Salt Lake Center
01:45PM 42.8369 -112.5469 295° West 423 487 34,000  Level Salt Lake Center
01:46PM 42.8783 -112.6869 292° West 419 482 34,000  Level Salt Lake Center
01:47PM 42.9078 -112.8333 285° West 415 478 34,000  Level Salt Lake Center
01:48PM 42.9442 -113.0025 286° West 415 478 34,000  Level Salt Lake Center
01:49PM 42.9739 -113.1467 286° West 411 473 34,000  Level Salt Lake Center
01:50PM 43.0086 -113.3172 286° West 417 480 34,000 -540 Level Salt Lake Center
01:51PM 43.0378 -113.4600 286° West 408 470 32,900 -1,500 Descending Salt Lake Center
01:53PM 43.0714 -113.6239 286° West 402 463 31,000 -1,740 Descending Salt Lake Center
01:54PM 43.0986 -113.7644 285° West 400 460 29,400 -1,800 Descending Salt Lake Center
01:55PM 43.1294 -113.9308 284° West 416 479 27,400 -1,860 Descending Salt Lake Center
01:56PM 43.1581 -114.0714 286° West 387 445 25,600 -1,680 Descending Salt Lake Center
01:57PM 43.1844 -114.2114 285° West 383 441 24,000 -1,620 Descending Salt Lake Center
01:58PM 43.2133 -114.3494 286° West 384 442 22,400 -1,620 Descending Salt Lake Center
01:59PM 43.2425 -114.5019 285° West 367 422 20,800 -1,500 Descending Salt Lake Center
02:00PM 43.2686 -114.6350 285° West 360 414 19,400 -1,440 Descending Salt Lake Center
02:01PM 43.2939 -114.7689 285° West 350 403 17,900 -1,380 Descending Salt Lake Center
02:02PM 43.3175 -114.8986 284° West 337 388 16,600 -1,320 Descending Salt Lake Center
02:03PM 43.3417 -115.0264 285° West 330 380 15,200 -1,260 Descending Salt Lake Center
02:04PM 43.3650 -115.1539 284° West 334 384 14,100 -1,080 Descending Salt Lake Center
02:05PM 43.3897 -115.2872 284° West 344 396 13,000 -540 Descending Salt Lake Center
02:06PM 43.4117 -115.4061 284° West 336 387 13,000 -360 Level Salt Lake Center
02:07PM 43.4342 -115.5272 284° West 318 366 12,300 -1,200 Descending Salt Lake Center
02:08PM 43.4531 -115.6339 284° West 282 325 10,600 -1,740 Descending Salt Lake Center
02:09PM 43.4717 -115.7381 284° West 270 311 8,800 -1,260 Descending Salt Lake Center
02:10PM 43.4800 -115.8403 276° West 261 300 8,000 -660 Descending Salt Lake Center
02:11PM 43.4861 -115.9314 275° West 253 291 7,500 -960 Descending Salt Lake Center
02:12PM 43.4944 -116.0128 278° West 212 244 6,100 -1,320 Descending Salt Lake Center
02:13PM 43.5164 -116.0808 294° West 189 217 4,800 -1,260 Descending Salt Lake Center